Time;durP1;ratioP1;P1;durP2;ratioP2;P2;SDS_P1;SDS_P2;PMS_P1;PMS_P2;Temp;Humidity;BMP_temperature;BMP_pressure;BME280_temperature;BME280_humidity;BME280_pressure;Samples;Min_cycle;Max_cycle;Signal;HPM_P1;HPM_P2
2023/01/30 00:01:31;;;;;;;30.23;15.37;;;;;;;-1.79;100.00;100166.91;5072685;28;20391;-77
2023/01/30 00:03:57;;;;;;;34.17;15.85;;;;;;;-1.78;100.00;100158.13;5072445;28;20041;-76
2023/01/30 00:06:23;;;;;;;33.23;15.30;;;;;;;-1.86;100.00;100156.81;5054438;28;20086;-77
2023/01/30 00:08:48;;;;;;;32.90;14.90;;;;;;;-1.86;100.00;100143.72;5072482;28;20111;-77
2023/01/30 00:11:15;;;;;;;34.10;15.27;;;;;;;-1.80;100.00;100152.97;5072462;28;20024;-77
2023/01/30 00:13:42;;;;;;;31.17;14.50;;;;;;;-1.73;100.00;100146.41;5053687;28;20166;-76
2023/01/30 00:16:08;;;;;;;28.65;14.15;;;;;;;-1.78;100.00;100142.41;5072368;28;20101;-77
2023/01/30 00:18:36;;;;;;;30.10;14.87;;;;;;;-1.73;100.00;100142.97;5072535;28;20119;-77
2023/01/30 00:21:05;;;;;;;33.60;15.60;;;;;;;-1.73;100.00;100148.22;5072445;28;20025;-76
2023/01/30 00:23:34;;;;;;;29.77;14.85;;;;;;;-1.69;100.00;100140.06;5072397;28;20032;-77
2023/01/30 00:25:59;;;;;;;31.05;14.60;;;;;;;-1.70;100.00;100129.66;5072263;28;20033;-76
2023/01/30 00:28:25;;;;;;;28.50;14.47;;;;;;;-1.60;100.00;100128.16;5072723;28;20043;-76
2023/01/30 00:30:53;;;;;;;35.35;15.98;;;;;;;-1.68;100.00;100117.31;5072455;28;20031;-77
2023/01/30 00:33:20;;;;;;;31.55;15.75;;;;;;;-1.64;100.00;100106.56;5072374;28;20029;-76
2023/01/30 00:35:48;;;;;;;31.70;15.07;;;;;;;-1.59;100.00;100106.25;5072216;28;20191;-77
2023/01/30 00:38:15;;;;;;;35.50;15.57;;;;;;;-1.52;100.00;100110.19;5072291;28;20376;-76
2023/01/30 00:40:40;;;;;;;31.45;15.48;;;;;;;-1.57;100.00;100105.22;5072389;28;20016;-76
2023/01/30 00:48:41;;;;;;;35.90;16.15;;;;;;;-1.60;100.00;100089.69;5075921;28;20526;-77
2023/01/30 00:51:07;;;;;;;37.22;16.00;;;;;;;-1.60;100.00;100079.19;5075761;28;20039;-76
2023/01/30 00:53:33;;;;;;;38.70;16.15;;;;;;;-1.56;100.00;100077.22;5075898;28;20120;-77
2023/01/30 00:55:59;;;;;;;30.27;15.30;;;;;;;-1.57;100.00;100060.66;5075828;28;20064;-76
2023/01/30 00:58:24;;;;;;;35.73;16.57;;;;;;;-1.48;100.00;100062.69;5076138;28;20016;-76
2023/01/30 01:00:51;;;;;;;34.13;16.13;;;;;;;-1.42;100.00;100068.50;5075827;28;20029;-76
2023/01/30 01:03:18;;;;;;;32.85;14.57;;;;;;;-1.46;100.00;100050.34;5075562;28;20027;-77
2023/01/30 01:05:44;;;;;;;31.48;15.60;;;;;;;-1.50;100.00;100064.56;5075734;28;20479;-77
2023/01/30 01:08:11;;;;;;;35.20;15.30;;;;;;;-1.56;100.00;100048.41;5075795;28;20025;-77
2023/01/30 01:10:37;;;;;;;31.95;14.73;;;;;;;-1.56;100.00;100054.50;5075785;28;20031;-77
2023/01/30 01:13:05;;;;;;;31.60;15.52;;;;;;;-1.59;100.00;100044.19;5075579;28;20028;-76
2023/01/30 01:15:32;;;;;;;32.13;14.73;;;;;;;-1.61;100.00;100040.81;5075439;28;20054;-76
2023/01/30 01:17:58;;;;;;;34.42;15.35;;;;;;;-1.59;100.00;100045.97;5057429;28;20029;-76
2023/01/30 01:20:24;;;;;;;30.60;14.40;;;;;;;-1.60;100.00;100033.81;5075282;28;20025;-77
2023/01/30 01:22:56;;;;;;;35.95;15.60;;;;;;;-1.51;100.00;100044.56;5075276;28;20043;-77
2023/01/30 01:25:23;;;;;;;32.65;15.40;;;;;;;-1.60;100.00;100033.81;5075212;28;20032;-76
2023/01/30 01:27:49;;;;;;;32.67;14.70;;;;;;;-1.63;100.00;100020.91;5057123;28;20028;-77
2023/01/30 01:30:15;;;;;;;33.70;15.40;;;;;;;-1.54;100.00;100030.81;5075013;28;20365;-76
2023/01/30 01:32:41;;;;;;;32.35;15.32;;;;;;;-1.52;100.00;100015.84;5075025;28;20084;-77
2023/01/30 01:35:07;;;;;;;36.37;15.37;;;;;;;-1.51;100.00;100023.59;5075193;28;20180;-77
2023/01/30 01:37:33;;;;;;;36.00;15.48;;;;;;;-1.46;100.00;100012.78;5075329;28;20572;-77
2023/01/30 01:42:44;;;;;;;33.58;14.85;;;;;;;-1.51;100.00;99992.16;5075180;28;20502;-76
2023/01/30 01:45:16;;;;;;;37.88;16.38;;;;;;;-1.44;100.00;100012.69;5075036;28;20088;-77
2023/01/30 01:47:53;;;;;;;33.72;15.23;;;;;;;-1.39;100.00;100000.16;5075009;28;20483;-77
2023/01/30 01:50:25;;;;;;;34.53;15.98;;;;;;;-1.40;100.00;99993.22;5074969;28;20154;-76
2023/01/30 01:52:53;;;;;;;33.58;15.73;;;;;;;-1.37;100.00;99991.22;5074847;28;20043;-77
2023/01/30 01:55:22;;;;;;;34.50;15.48;;;;;;;-1.38;100.00;99984.28;5077849;28;20024;-76
2023/01/30 01:57:54;;;;;;;36.85;15.70;;;;;;;-1.41;100.00;99981.06;5077119;28;20031;-77
2023/01/30 02:00:22;;;;;;;36.10;16.80;;;;;;;-1.40;100.00;99980.13;5094880;28;20073;-76
2023/01/30 02:03:02;;;;;;;35.47;15.93;;;;;;;-1.46;100.00;99965.63;5095033;28;20054;-76
2023/01/30 02:05:32;;;;;;;34.55;16.25;;;;;;;-1.43;100.00;99970.66;5094733;28;20052;-76
2023/01/30 02:08:13;;;;;;;34.80;15.45;;;;;;;-1.39;100.00;99971.31;5094640;28;20032;-77
2023/01/30 02:10:51;;;;;;;35.30;16.85;;;;;;;-1.35;100.00;99975.41;5094611;28;20046;-77
2023/01/30 02:13:17;;;;;;;35.65;16.00;;;;;;;-1.37;100.00;99958.91;5094576;28;20105;-76
2023/01/30 02:15:44;;;;;;;36.55;17.25;;;;;;;-1.41;100.00;99952.22;5076511;28;20028;-77
2023/01/30 02:18:10;;;;;;;36.47;16.80;;;;;;;-1.37;100.00;99951.91;5094460;28;20386;-76
2023/01/30 02:20:35;;;;;;;40.17;17.92;;;;;;;-1.44;100.00;99949.78;5094551;28;20032;-76
2023/01/30 02:23:17;;;;;;;36.30;15.97;;;;;;;-1.39;100.00;99930.22;5094577;28;20023;-77
2023/01/30 02:26:09;;;;;;;33.67;16.65;;;;;;;-1.28;100.00;99946.06;5094614;28;20532;-76
2023/01/30 02:28:58;;;;;;;37.55;16.25;;;;;;;-1.34;100.00;99943.00;5094536;28;20028;-76
2023/01/30 02:31:49;;;;;;;35.92;16.25;;;;;;;-1.37;100.00;99933.53;5094310;28;20020;-76
2023/01/30 02:34:23;;;;;;;37.22;17.23;;;;;;;-1.32;100.00;99920.97;5094281;28;20546;-77
2023/01/30 02:37:03;;;;;;;36.47;16.90;;;;;;;-1.29;100.00;99919.94;5094145;28;20023;-77
2023/01/30 02:39:52;;;;;;;37.15;16.63;;;;;;;-1.29;100.00;99910.31;5094225;28;20059;-77
2023/01/30 02:42:41;;;;;;;33.70;15.93;;;;;;;-1.28;100.00;99909.38;5094072;28;20031;-77
2023/01/30 02:45:31;;;;;;;36.10;16.05;;;;;;;-1.26;100.00;99902.22;5093740;28;20039;-77
2023/01/30 02:48:43;;;;;;;36.78;16.67;;;;;;;-1.23;100.00;99895.91;5093903;28;20023;-77
2023/01/30 02:51:18;;;;;;;36.10;17.13;;;;;;;-1.23;100.00;99891.53;5082533;28;20032;-76
2023/01/30 02:53:46;;;;;;;34.03;15.52;;;;;;;-1.29;100.00;99888.47;5093596;28;20043;-76
2023/01/30 02:56:13;;;;;;;37.50;16.38;;;;;;;-1.30;100.00;99889.44;5082849;28;20032;-77
2023/01/30 02:58:49;;;;;;;37.17;16.33;;;;;;;-1.19;100.00;99897.41;5055542;28;20024;-77
2023/01/30 03:01:28;;;;;;;35.55;16.27;;;;;;;-1.24;100.00;99881.13;5073784;28;20357;-77
2023/01/30 03:04:05;;;;;;;32.45;15.40;;;;;;;-1.21;100.00;99884.41;5073391;28;20039;-76
2023/01/30 03:07:15;;;;;;;34.15;15.07;;;;;;;-1.19;100.00;99884.28;5073655;28;20483;-76
2023/01/30 03:10:09;;;;;;;32.22;14.68;;;;;;;-1.20;100.00;99883.44;5038539;28;20047;-77
2023/01/30 03:12:53;;;;;;;34.03;15.57;;;;;;;-1.20;100.00;99869.50;5073250;28;20549;-76
2023/01/30 03:15:43;;;;;;;37.33;16.17;;;;;;;-1.14;100.00;99876.94;5073030;28;20032;-76
2023/01/30 03:18:09;;;;;;;39.83;15.32;;;;;;;-1.14;100.00;99874.31;5055245;28;20025;-77
2023/01/30 03:20:38;;;;;;;36.25;15.68;;;;;;;-1.16;100.00;99863.94;5072884;28;20027;-77
2023/01/30 03:23:03;;;;;;;31.15;14.93;;;;;;;-1.07;100.00;99861.63;5072855;28;20109;-76
2023/01/30 03:25:31;;;;;;;32.03;15.30;;;;;;;-1.03;100.00;99856.06;5072747;28;20062;-76
2023/01/30 03:27:57;;;;;;;32.13;14.63;;;;;;;-1.14;100.00;99841.06;5072917;28;20499;-77
2023/01/30 03:30:25;;;;;;;32.08;13.93;;;;;;;-1.15;100.00;99838.53;5072682;28;20475;-76
2023/01/30 03:32:50;;;;;;;43.22;15.75;;;;;;;-1.14;100.00;99840.22;5072740;28;20119;-76
2023/01/30 03:35:16;;;;;;;35.03;15.53;;;;;;;-1.11;100.00;99832.16;5054825;28;20060;-77
2023/01/30 03:37:43;;;;;;;35.40;16.00;;;;;;;-1.12;100.00;99820.81;5072895;28;20108;-77
2023/01/30 03:40:12;;;;;;;32.83;15.68;;;;;;;-1.17;100.00;99812.44;5072653;28;20086;-76
2023/01/30 03:42:37;;;;;;;39.22;16.42;;;;;;;-1.13;100.00;99824.38;5072969;28;20491;-77
2023/01/30 03:45:03;;;;;;;36.90;15.90;;;;;;;-1.15;100.00;99826.28;5072700;28;20085;-77
2023/01/30 03:47:29;;;;;;;36.20;16.43;;;;;;;-1.08;100.00;99834.56;5054784;28;20673;-76
2023/01/30 03:49:54;;;;;;;35.07;15.67;;;;;;;-1.02;100.00;99846.41;5072768;28;20039;-77
2023/01/30 03:52:20;;;;;;;34.63;16.43;;;;;;;-1.13;100.00;99837.50;5072661;28;20028;-77
2023/01/30 03:54:45;;;;;;;38.13;17.20;;;;;;;-1.12;100.00;99833.09;5072665;28;20103;-77
2023/01/30 03:57:11;;;;;;;36.10;16.27;;;;;;;-1.17;100.00;99848.31;5091425;28;20024;-76
2023/01/30 03:59:36;;;;;;;34.13;15.30;;;;;;;-1.22;100.00;99832.88;5092895;28;20024;-76
2023/01/30 04:02:02;;;;;;;38.60;16.03;;;;;;;-1.17;100.00;99832.59;5092816;28;20024;-77
2023/01/30 04:04:27;;;;;;;32.43;15.60;;;;;;;-1.21;100.00;99831.94;5092556;28;20123;-76
2023/01/30 04:06:53;;;;;;;36.37;16.67;;;;;;;-1.29;100.00;99829.03;5092802;28;20020;-76
2023/01/30 04:09:18;;;;;;;33.37;15.17;;;;;;;-1.25;100.00;99832.25;5092718;28;20020;-77
2023/01/30 04:11:44;;;;;;;35.13;16.50;;;;;;;-1.20;100.00;99836.25;5093091;28;20028;-77
2023/01/30 04:14:09;;;;;;;36.00;15.83;;;;;;;-1.28;100.00;99833.31;5074436;28;20506;-76
2023/01/30 04:16:35;;;;;;;34.93;15.10;;;;;;;-1.21;100.00;99826.69;5092480;28;20036;-76
2023/01/30 04:19:00;;;;;;;38.53;16.83;;;;;;;-1.30;100.00;99818.63;5092652;28;20069;-77
2023/01/30 04:21:26;;;;;;;38.53;16.03;;;;;;;-1.26;100.00;99817.47;5096319;28;20436;-77
2023/01/30 04:23:51;;;;;;;39.17;15.97;;;;;;;-1.30;100.00;99816.84;5096763;28;20016;-77
2023/01/30 04:26:17;;;;;;;34.33;15.97;;;;;;;-1.17;100.00;99804.59;5096692;28;20081;-77
2023/01/30 04:28:43;;;;;;;35.90;16.00;;;;;;;-1.17;100.00;99806.38;5078812;28;20020;-77
2023/01/30 04:31:10;;;;;;;33.30;14.50;;;;;;;-1.11;100.00;99798.06;5078523;28;20053;-77
2023/01/30 04:33:38;;;;;;;35.88;16.08;;;;;;;-1.07;100.00;99802.16;5078492;28;20035;-77
2023/01/30 04:36:06;;;;;;;34.05;15.32;;;;;;;-1.11;100.00;99790.19;5078195;28;20020;-77
2023/01/30 04:38:32;;;;;;;31.95;15.65;;;;;;;-1.19;100.00;99792.50;5096462;28;20486;-77
2023/01/30 04:40:58;;;;;;;32.42;16.17;;;;;;;-1.15;100.00;99799.19;5096582;28;20032;-77
2023/01/30 04:43:26;;;;;;;36.22;15.95;;;;;;;-1.13;100.00;99797.31;5096290;28;20039;-77
2023/01/30 04:45:53;;;;;;;33.88;16.02;;;;;;;-1.08;100.00;99789.13;5095672;28;20115;-77
2023/01/30 04:48:20;;;;;;;38.00;16.88;;;;;;;-1.14;100.00;99785.16;5096258;28;20479;-77
2023/01/30 04:50:48;;;;;;;35.83;16.08;;;;;;;-1.18;100.00;99778.47;5096059;28;20030;-77
2023/01/30 04:53:14;;;;;;;39.22;17.63;;;;;;;-1.11;100.00;99787.56;5096436;28;20074;-76
2023/01/30 04:55:39;;;;;;;34.95;17.10;;;;;;;-1.07;100.00;99769.84;5096010;28;20424;-77
2023/01/30 04:58:08;;;;;;;37.67;16.97;;;;;;;-1.05;100.00;99776.66;5095703;28;20031;-76
2023/01/30 05:00:33;;;;;;;35.17;16.00;;;;;;;-0.96;100.00;99772.53;5095823;28;20028;-76
2023/01/30 05:02:59;;;;;;;35.10;17.10;;;;;;;-0.90;100.00;99770.31;5095773;28;20050;-76
2023/01/30 05:05:27;;;;;;;36.70;17.20;;;;;;;-0.89;100.00;99752.78;5095551;28;20052;-77
2023/01/30 05:07:53;;;;;;;37.45;17.30;;;;;;;-0.92;100.00;99745.97;5077506;28;20466;-77
2023/01/30 05:10:19;;;;;;;34.42;16.80;;;;;;;-0.87;100.00;99756.97;5095625;28;20387;-77
2023/01/30 05:12:45;;;;;;;42.67;18.27;;;;;;;-0.89;100.00;99766.75;5095590;28;20028;-76
2023/01/30 05:15:12;;;;;;;37.37;16.43;;;;;;;-0.86;100.00;99760.44;5095774;28;20028;-77
2023/01/30 05:17:38;;;;;;;32.72;15.38;;;;;;;-0.89;100.00;99744.91;5095780;28;20505;-77
2023/01/30 05:20:06;;;;;;;37.65;17.50;;;;;;;-0.90;100.00;99736.22;5095692;28;20432;-77
2023/01/30 05:22:33;;;;;;;37.38;16.83;;;;;;;-0.93;100.00;99725.97;5095584;28;20471;-77
2023/01/30 05:24:58;;;;;;;37.25;17.67;;;;;;;-0.89;100.00;99730.00;5077635;28;20066;-76
2023/01/30 05:27:24;;;;;;;40.63;16.80;;;;;;;-0.85;100.00;99723.63;5095455;28;20028;-77
2023/01/30 05:29:49;;;;;;;34.87;15.87;;;;;;;-0.88;100.00;99704.63;5095768;28;20035;-76
2023/01/30 05:32:16;;;;;;;33.93;15.50;;;;;;;-0.80;100.00;99744.25;5076578;28;20035;-77
2023/01/30 05:34:42;;;;;;;32.35;15.68;;;;;;;-0.85;100.00;99749.00;5095435;28;20024;-77
2023/01/30 05:37:09;;;;;;;38.63;16.73;;;;;;;-0.95;100.00;99754.06;5095316;28;20028;-77
2023/01/30 05:39:35;;;;;;;35.83;16.02;;;;;;;-0.92;100.00;99758.25;5094979;28;20024;-76
2023/01/30 05:42:03;;;;;;;34.83;15.70;;;;;;;-0.97;100.00;99768.25;5076977;28;20173;-77
2023/01/30 05:44:29;;;;;;;30.58;14.32;;;;;;;-1.07;100.00;99751.47;5093242;28;20502;-76
2023/01/30 05:46:56;;;;;;;35.78;15.55;;;;;;;-1.07;100.00;99760.19;5094871;28;20391;-76
2023/01/30 05:49:22;;;;;;;36.28;16.95;;;;;;;-1.00;100.00;99755.34;5095115;28;20024;-77
2023/01/30 05:51:48;;;;;;;35.70;16.70;;;;;;;-1.03;100.00;99752.91;5094969;28;20046;-76
2023/01/30 05:54:14;;;;;;;34.43;16.03;;;;;;;-1.03;100.00;99753.75;5094804;28;20482;-77
2023/01/30 05:56:40;;;;;;;37.60;16.33;;;;;;;-1.04;100.00;99744.25;5094878;28;20264;-77
2023/01/30 05:59:05;;;;;;;38.13;16.80;;;;;;;-1.08;100.00;99734.91;5094764;28;20673;-77
2023/01/30 06:01:31;;;;;;;34.67;15.97;;;;;;;-1.02;100.00;99752.81;5094791;28;20099;-77
2023/01/30 06:03:57;;;;;;;37.40;17.17;;;;;;;-1.09;100.00;99767.31;5089272;28;20064;-77
2023/01/30 06:06:24;;;;;;;31.55;16.10;;;;;;;-1.11;100.00;99772.66;5074599;28;20119;-77
2023/01/30 06:08:55;;;;;;;32.88;14.95;;;;;;;-1.08;100.00;99765.53;5074577;28;20060;-77
2023/01/30 06:11:22;;;;;;;32.65;15.60;;;;;;;-1.02;100.00;99752.81;5056505;28;20036;-77
2023/01/30 06:13:48;;;;;;;32.28;15.40;;;;;;;-1.03;100.00;99758.16;5074504;28;20070;-77
2023/01/30 06:16:16;;;;;;;36.37;16.90;;;;;;;-1.00;100.00;99740.44;5056436;28;20028;-77
2023/01/30 06:18:42;;;;;;;34.10;16.02;;;;;;;-0.92;100.00;99726.75;5074197;28;20059;-77
2023/01/30 06:21:08;;;;;;;35.93;16.53;;;;;;;-0.93;100.00;99725.97;5074308;28;20056;-77
2023/01/30 06:23:34;;;;;;;36.70;15.85;;;;;;;-0.87;100.00;99756.16;5073669;28;20031;-77
2023/01/30 06:26:00;;;;;;;33.27;15.30;;;;;;;-0.83;100.00;99747.97;5074066;28;20107;-76
2023/01/30 06:28:26;;;;;;;29.90;15.20;;;;;;;-0.83;100.00;99721.72;5073119;28;20070;-77
2023/01/30 06:30:56;;;;;;;34.75;15.85;;;;;;;-0.82;100.00;99731.28;5072830;28;20064;-73
2023/01/30 06:33:21;;;;;;;36.05;16.15;;;;;;;-0.76;100.00;99701.13;5052591;28;20036;-77
2023/01/30 06:35:49;;;;;;;32.70;15.47;;;;;;;-0.74;100.00;99702.69;5073225;28;20043;-74
2023/01/30 06:38:15;;;;;;;34.92;16.55;;;;;;;-0.66;100.00;99710.00;5073860;28;20028;-80
2023/01/30 06:40:44;;;;;;;36.63;16.67;;;;;;;-0.70;100.00;99691.97;5088643;28;20024;-79
2023/01/30 06:43:09;;;;;;;36.80;16.35;;;;;;;-0.69;100.00;99698.91;5093378;28;20024;-77
2023/01/30 06:45:35;;;;;;;35.43;16.43;;;;;;;-0.70;100.00;99712.97;5091378;28;20106;-77
2023/01/30 06:48:25;;;;;;;34.73;16.57;;;;;;;-0.65;100.00;99708.19;5073807;28;20024;-77
2023/01/30 06:50:50;;;;;;;34.47;15.45;;;;;;;-0.66;100.00;99701.28;4973252;28;20064;-76
2023/01/30 06:53:41;;;;;;;33.43;15.63;;;;;;;-0.67;100.00;99712.72;4957051;28;20629;-78
2023/01/30 06:56:12;;;;;;;32.47;15.02;;;;;;;-0.74;100.00;99707.94;4915736;29;20071;-77
2023/01/30 06:58:37;;;;;;;35.35;16.40;;;;;;;-0.76;100.00;99704.56;4915561;29;20032;-77
2023/01/30 07:01:03;;;;;;;37.27;15.40;;;;;;;-0.82;100.00;99698.94;4918115;29;20036;-77
2023/01/30 07:03:28;;;;;;;35.30;16.13;;;;;;;-0.89;100.00;99698.53;4918459;29;20044;-77
2023/01/30 07:05:53;;;;;;;33.17;15.20;;;;;;;-0.78;100.00;99703.84;4929322;29;20046;-75
2023/01/30 07:08:20;;;;;;;36.27;16.37;;;;;;;-0.80;100.00;99697.88;4933424;29;20039;-75
2023/01/30 07:10:46;;;;;;;34.83;15.82;;;;;;;-0.74;100.00;99699.22;4933733;29;20403;-74
2023/01/30 07:13:12;;;;;;;35.47;15.47;;;;;;;-0.75;100.00;99710.66;4933633;29;20045;-75
2023/01/30 07:15:37;;;;;;;33.55;16.90;;;;;;;-0.71;100.00;99720.00;4933539;29;20142;-77
2023/01/30 07:18:05;;;;;;;32.07;15.20;;;;;;;-0.72;100.00;99702.56;4933372;29;20110;-76
2023/01/30 07:20:31;;;;;;;33.63;15.83;;;;;;;-0.74;100.00;99715.81;4933572;29;20423;-76
2023/01/30 07:22:56;;;;;;;31.87;15.03;;;;;;;-0.70;100.00;99733.97;4933179;29;20297;-76
2023/01/30 07:25:24;;;;;;;33.20;16.97;;;;;;;-0.79;100.00;99732.81;4932620;29;20042;-76
2023/01/30 07:27:51;;;;;;;33.20;15.45;;;;;;;-0.79;100.00;99736.28;4971558;28;20045;-77
2023/01/30 07:30:17;;;;;;;32.20;15.70;;;;;;;-0.80;100.00;99747.72;5009941;28;20034;-76
2023/01/30 07:32:42;;;;;;;31.00;15.57;;;;;;;-0.82;100.00;99754.03;5011181;28;20040;-77
2023/01/30 07:35:08;;;;;;;36.23;16.80;;;;;;;-0.82;100.00;99744.38;5052239;28;20028;-79
2023/01/30 07:37:34;;;;;;;33.07;15.30;;;;;;;-0.87;100.00;99730.75;5051882;28;20055;-78
2023/01/30 07:39:59;;;;;;;34.80;15.60;;;;;;;-0.78;100.00;99695.13;5063098;28;20024;-73
2023/01/30 07:42:24;;;;;;;38.43;16.07;;;;;;;-0.73;100.00;99696.50;5072011;28;20463;-76
2023/01/30 07:44:50;;;;;;;30.93;15.60;;;;;;;-0.68;100.00;99703.16;5072030;28;20032;-74
2023/01/30 07:47:18;;;;;;;33.70;15.67;;;;;;;-0.69;100.00;99714.66;5072286;28;20040;-74
2023/01/30 07:49:43;;;;;;;35.83;15.73;;;;;;;-0.63;100.00;99729.94;5053731;28;20029;-77
2023/01/30 07:52:09;;;;;;;33.63;15.57;;;;;;;-0.63;100.00;99722.91;5070061;28;20562;-76
2023/01/30 07:54:34;;;;;;;35.83;16.67;;;;;;;-0.60;100.00;99724.47;5055323;28;20830;-77
2023/01/30 07:57:01;;;;;;;35.03;16.73;;;;;;;-0.53;100.00;99704.69;5050859;28;20418;-77
2023/01/30 07:59:26;;;;;;;36.43;15.87;;;;;;;-0.47;100.00;99705.09;5051148;28;20064;-76
2023/01/30 08:01:52;;;;;;;33.83;16.33;;;;;;;-0.46;100.00;99716.41;5051177;28;20301;-78
2023/01/30 08:04:17;;;;;;;32.63;15.17;;;;;;;-0.42;100.00;99702.09;5060288;28;20047;-76
2023/01/30 08:06:43;;;;;;;33.20;15.67;;;;;;;-0.37;100.00;99702.63;5071405;28;20480;-77
2023/01/30 08:09:08;;;;;;;33.30;15.43;;;;;;;-0.33;100.00;99695.31;5053246;28;20028;-76
2023/01/30 08:11:34;;;;;;;34.13;15.13;;;;;;;-0.20;100.00;99699.56;5071068;28;20074;-76
2023/01/30 08:13:59;;;;;;;33.33;15.70;;;;;;;-0.15;100.00;99691.34;5070809;28;20027;-76
2023/01/30 08:16:30;;;;;;;32.17;15.90;;;;;;;-0.08;100.00;99685.50;5071124;28;20360;-75
2023/01/30 08:18:56;;;;;;;38.83;16.53;;;;;;;-0.03;100.00;99678.13;5070954;28;20032;-75
2023/01/30 08:21:22;;;;;;;34.97;15.73;;;;;;;-0.04;100.00;99676.44;5070969;28;20267;-75
2023/01/30 08:23:47;;;;;;;27.63;14.07;;;;;;;-0.03;100.00;99662.38;5076216;28;20487;-76
2023/01/30 08:26:13;;;;;;;31.93;15.37;;;;;;;-0.06;100.00;99651.25;5091104;28;20024;-76
2023/01/30 08:28:39;;;;;;;31.53;15.50;;;;;;;0.03;100.00;99637.41;5091027;28;20048;-76
2023/01/30 08:31:09;;;;;;;31.37;14.50;;;;;;;0.11;100.00;99636.84;5073003;28;20032;-74
2023/01/30 08:33:36;;;;;;;33.23;15.20;;;;;;;0.13;100.00;99632.25;5090694;28;21082;-75
2023/01/30 08:36:01;;;;;;;31.07;15.00;;;;;;;0.18;100.00;99620.47;5075498;28;20261;-75
2023/01/30 08:38:27;;;;;;;34.67;15.60;;;;;;;0.27;100.00;99626.78;5069640;28;20624;-76
2023/01/30 08:40:52;;;;;;;28.80;14.23;;;;;;;0.29;100.00;99606.47;5069523;28;20393;-75
2023/01/30 08:43:17;;;;;;;29.47;14.80;;;;;;;0.41;100.00;99612.56;5070639;28;20032;-75
2023/01/30 08:45:43;;;;;;;32.87;14.87;;;;;;;0.38;100.00;99592.59;5073378;28;20033;-75
2023/01/30 08:48:08;;;;;;;32.77;14.30;;;;;;;0.35;100.00;99580.53;5070554;28;20495;-77
2023/01/30 08:50:35;;;;;;;28.00;14.00;;;;;;;0.31;100.00;99596.69;5070370;28;20549;-76
2023/01/30 08:53:05;;;;;;;31.83;14.33;;;;;;;0.19;100.00;99606.38;5070185;28;20113;-75
2023/01/30 08:55:30;;;;;;;31.97;14.57;;;;;;;0.11;100.00;99600.88;5070746;28;20704;-76
2023/01/30 08:57:56;;;;;;;29.60;13.87;;;;;;;0.16;100.00;99600.50;5070400;28;20269;-75
2023/01/30 09:00:22;;;;;;;30.83;13.77;;;;;;;0.15;100.00;99615.44;5052805;28;20083;-75
2023/01/30 09:02:47;;;;;;;28.37;13.77;;;;;;;0.12;100.00;99612.19;5070608;28;20025;-75
2023/01/30 09:05:12;;;;;;;30.20;14.40;;;;;;;0.07;100.00;99624.88;5070286;28;20044;-75
2023/01/30 09:07:38;;;;;;;32.83;14.33;;;;;;;0.10;100.00;99627.28;5073343;28;20542;-74
2023/01/30 09:10:04;;;;;;;67.13;37.27;;;;;;;0.06;100.00;99623.19;5052708;28;20447;-77
2023/01/30 09:12:29;;;;;;;30.27;14.53;;;;;;;0.05;100.00;99618.88;5054866;28;20037;-76
2023/01/30 09:14:56;;;;;;;32.80;20.37;;;;;;;-0.02;100.00;99629.06;5054400;28;20257;-76
2023/01/30 09:17:22;;;;;;;32.27;16.17;;;;;;;-0.06;100.00;99620.56;5054418;28;20036;-76
2023/01/30 09:19:48;;;;;;;35.83;19.50;;;;;;;-0.04;100.00;99597.63;5054140;28;20262;-76
2023/01/30 09:22:14;;;;;;;32.27;16.23;;;;;;;0.04;100.00;99602.28;5053860;28;20262;-74
2023/01/30 09:24:40;;;;;;;27.40;15.87;;;;;;;0.15;100.00;99614.59;5063469;28;20024;-74
2023/01/30 09:27:05;;;;;;;29.77;14.77;;;;;;;0.25;100.00;99589.28;5073919;28;20261;-77
2023/01/30 09:29:31;;;;;;;32.40;15.80;;;;;;;0.50;100.00;99591.63;5074055;28;20030;-76
2023/01/30 09:31:56;;;;;;;32.90;17.80;;;;;;;0.79;100.00;99586.69;5074186;28;20034;-76
2023/01/30 09:34:29;;;;;;;27.73;14.03;;;;;;;1.10;100.00;99569.25;5073987;28;20379;-76
2023/01/30 09:36:55;;;;;;;24.87;12.23;;;;;;;1.36;100.00;99575.84;5074407;28;20364;-74
2023/01/30 09:39:21;;;;;;;24.40;12.23;;;;;;;1.40;100.00;99560.59;5073042;28;20289;-75
2023/01/30 09:42:04;;;;;;;22.33;11.23;;;;;;;1.60;100.00;99564.22;5073843;28;20693;-75
2023/01/30 09:44:51;;;;;;;24.13;10.73;;;;;;;1.65;100.00;99551.47;5073624;28;20062;-76
2023/01/30 09:47:58;;;;;;;23.37;11.40;;;;;;;1.65;100.00;99538.28;5073834;28;20064;-77
2023/01/30 09:50:33;;;;;;;24.07;10.80;;;;;;;1.58;100.00;99538.00;5073973;28;20257;-77
2023/01/30 09:53:30;;;;;;;22.33;12.17;;;;;;;1.37;100.00;99526.63;5073613;28;20356;-77
2023/01/30 09:55:58;;;;;;;28.27;12.63;;;;;;;1.37;100.00;99513.47;5036162;28;20440;-75
2023/01/30 09:58:27;;;;;;;24.33;12.17;;;;;;;1.37;100.00;99495.88;5073634;28;20261;-76
2023/01/30 10:01:02;;;;;;;23.53;11.47;;;;;;;1.20;100.00;99491.19;5073862;28;20671;-77
2023/01/30 10:03:40;;;;;;;23.23;11.27;;;;;;;1.25;100.00;99498.72;5073304;28;20265;-74
2023/01/30 10:06:12;;;;;;;23.73;10.73;;;;;;;1.24;100.00;99497.88;5073502;28;20261;-73
2023/01/30 10:08:50;;;;;;;22.90;10.73;;;;;;;1.21;100.00;99494.66;5073365;28;20261;-74
2023/01/30 10:11:24;;;;;;;48.27;41.03;;;;;;;1.28;100.00;99480.84;5072164;28;20265;-74
2023/01/30 10:13:56;;;;;;;20.37;11.07;;;;;;;1.35;100.00;99470.63;5074844;28;20367;-74
2023/01/30 10:16:54;;;;;;;27.87;11.73;;;;;;;1.38;100.00;99479.13;5093203;28;20280;-73
2023/01/30 10:19:34;;;;;;;22.80;10.83;;;;;;;1.42;100.00;99474.41;5093225;28;20257;-76
2023/01/30 10:22:20;;;;;;;22.93;10.83;;;;;;;1.56;100.00;99449.53;5093561;28;21035;-75
2023/01/30 10:24:51;;;;;;;20.90;10.47;;;;;;;1.61;100.00;99460.53;5092442;28;20257;-75
2023/01/30 10:27:19;;;;;;;22.10;9.43;;;;;;;1.80;100.00;99461.44;5076004;28;20356;-80
2023/01/30 10:29:55;;;;;;;18.87;9.37;;;;;;;1.88;100.00;99452.00;5094534;28;20263;-76
2023/01/30 10:32:30;;;;;;;18.57;8.77;;;;;;;1.72;100.00;99452.53;5093332;28;20735;-76
2023/01/30 10:35:03;;;;;;;18.70;9.10;;;;;;;1.72;100.00;99434.09;5093361;28;20636;-76
2023/01/30 10:37:55;;;;;;;21.20;8.82;;;;;;;1.63;100.00;99437.50;5093491;28;20620;-76
2023/01/30 10:40:39;;;;;;;66.77;47.07;;;;;;;1.50;100.00;99434.28;5072914;28;20028;-75
2023/01/30 10:43:18;;;;;;;91.33;81.77;;;;;;;1.39;100.00;99424.63;5049504;28;20623;-79
2023/01/30 10:45:44;;;;;;;26.27;16.97;;;;;;;1.45;100.00;99424.13;5073102;28;20249;-78
2023/01/30 10:48:46;;;;;;;20.17;9.87;;;;;;;1.35;100.00;99410.09;5072859;28;20326;-79
2023/01/30 10:51:26;;;;;;;17.20;9.20;;;;;;;1.44;100.00;99439.09;5067021;28;20041;-78
2023/01/30 10:53:59;;;;;;;24.27;10.43;;;;;;;1.41;100.00;99426.19;5072919;28;20787;-78
2023/01/30 10:56:48;;;;;;;18.17;9.85;;;;;;;1.58;100.00;99429.16;5073076;28;20303;-78
2023/01/30 10:59:45;;;;;;;45.80;40.90;;;;;;;1.69;100.00;99422.00;5072604;28;20033;-78
2023/01/30 11:02:32;;;;;;;18.50;9.90;;;;;;;1.84;100.00;99411.09;5072708;28;20253;-77
2023/01/30 11:05:23;;;;;;;19.30;9.07;;;;;;;1.95;100.00;99413.63;5072218;28;20284;-76
2023/01/30 11:07:49;;;;;;;16.13;8.33;;;;;;;2.03;100.00;99406.72;5072941;28;20328;-78
2023/01/30 11:10:21;;;;;;;16.83;8.13;;;;;;;2.00;100.00;99391.16;5075004;28;20422;-75
2023/01/30 11:12:59;;;;;;;18.85;8.90;;;;;;;1.94;100.00;99375.06;5058041;28;20040;-75
2023/01/30 11:15:39;;;;;;;18.67;9.33;;;;;;;1.97;100.00;99369.50;5050326;28;20131;-76
2023/01/30 11:18:06;;;;;;;17.17;9.17;;;;;;;2.00;100.00;99369.25;5051940;28;20261;-75
2023/01/30 11:20:39;;;;;;;17.23;8.97;;;;;;;2.08;100.00;99372.84;5051851;28;20266;-78
2023/01/30 11:23:08;;;;;;;18.95;9.63;;;;;;;2.09;100.00;99366.59;5052681;28;20311;-75
2023/01/30 11:25:47;;;;;;;18.10;9.03;;;;;;;1.94;100.00;99351.34;5050434;28;20410;-77
2023/01/30 11:28:18;;;;;;;17.13;9.07;;;;;;;1.83;100.00;99352.31;5051781;28;20348;-76
2023/01/30 11:30:52;;;;;;;16.50;8.80;;;;;;;1.72;100.00;99331.34;5051764;28;20772;-76
2023/01/30 11:33:20;;;;;;;17.50;8.77;;;;;;;1.76;100.00;99320.38;5051434;28;20285;-75